createdAt,value
2019-03-23T00:00:06.467Z,5.30
2019-03-23T00:02:35.334Z,5.20
2019-03-23T00:05:06.159Z,5.20
2019-03-23T00:07:35.019Z,5.10
2019-03-23T00:10:04.987Z,5.10
2019-03-23T00:12:33.812Z,5.10
2019-03-23T00:15:02.676Z,5.10
2019-03-23T00:17:31.532Z,5.10
2019-03-23T00:20:00.362Z,5.10
2019-03-23T00:22:29.319Z,5.00
2019-03-23T00:24:58.188Z,5.00
2019-03-23T00:27:27.005Z,4.90
2019-03-23T00:29:55.875Z,4.90
2019-03-23T00:32:24.730Z,4.90
2019-03-23T00:34:53.556Z,4.90
2019-03-23T00:37:22.420Z,4.80
2019-03-23T00:39:51.320Z,4.80
2019-03-23T00:42:20.103Z,4.80
2019-03-23T00:44:48.969Z,4.70
2019-03-23T00:47:17.840Z,4.70
2019-03-23T00:49:46.654Z,4.60
2019-03-23T00:52:15.520Z,4.50
2019-03-23T00:54:44.386Z,4.50
2019-03-23T00:57:13.211Z,4.40
2019-03-23T00:59:42.078Z,4.30
2019-03-23T01:02:10.943Z,4.20
2019-03-23T01:04:39.775Z,4.20
2019-03-23T01:07:08.631Z,4.20
2019-03-23T01:09:37.503Z,4.10
2019-03-23T01:12:06.336Z,4.10
2019-03-23T01:14:35.195Z,4.10
2019-03-23T01:17:04.070Z,4.10
2019-03-23T01:19:32.882Z,4.10
2019-03-23T01:22:01.747Z,4.10
2019-03-23T01:24:30.655Z,4.10
2019-03-23T01:26:59.483Z,4.00
2019-03-23T01:29:28.347Z,4.00
2019-03-23T01:31:57.209Z,4.00
2019-03-23T01:34:26.031Z,3.90
2019-03-23T01:37:02.498Z,3.90
2019-03-23T01:39:25.416Z,3.90
2019-03-23T01:41:54.231Z,3.80
2019-03-23T01:44:23.091Z,3.80
2019-03-23T01:46:51.959Z,3.70
2019-03-23T01:49:20.776Z,3.60
2019-03-23T01:51:49.629Z,3.60
2019-03-23T01:54:18.500Z,3.50
2019-03-23T01:56:47.325Z,3.50
2019-03-23T01:59:16.185Z,3.40
2019-03-23T02:01:45.047Z,3.40
2019-03-23T02:04:13.872Z,3.40
2019-03-23T02:06:42.743Z,3.40
2019-03-23T02:09:11.599Z,3.40
2019-03-23T02:11:40.432Z,3.40
2019-03-23T02:14:09.301Z,3.30
2019-03-23T02:16:38.155Z,3.30
2019-03-23T02:19:06.999Z,3.30
2019-03-23T02:21:35.846Z,3.20
2019-03-23T02:24:04.715Z,3.20
2019-03-23T02:26:33.539Z,3.20
2019-03-23T02:29:02.407Z,3.10
2019-03-23T02:31:31.261Z,3.10
2019-03-23T02:34:00.088Z,3.10
2019-03-23T02:36:28.959Z,3.00
2019-03-23T02:38:57.824Z,3.00
2019-03-23T02:41:26.667Z,3.00
2019-03-23T02:43:55.508Z,3.00
2019-03-23T02:46:24.379Z,3.00
2019-03-23T02:48:53.203Z,2.90
2019-03-23T02:51:22.055Z,2.90
2019-03-23T02:53:50.923Z,2.90
2019-03-23T02:56:19.756Z,2.80
2019-03-23T02:58:48.622Z,2.80
2019-03-23T03:01:17.494Z,2.80
2019-03-23T03:03:46.325Z,2.70
2019-03-23T03:06:15.209Z,2.70
2019-03-23T03:08:44.049Z,2.70
2019-03-23T03:11:12.879Z,2.70
2019-03-23T03:13:41.761Z,2.70
2019-03-23T03:16:10.624Z,2.60
2019-03-23T03:18:39.452Z,2.60
2019-03-23T03:21:08.317Z,2.50
2019-03-23T03:23:37.187Z,2.50
2019-03-23T03:26:06.024Z,2.50
2019-03-23T03:28:35.091Z,2.40
2019-03-23T03:31:03.949Z,2.40
2019-03-23T03:33:32.776Z,2.40
2019-03-23T03:36:01.646Z,2.40
2019-03-23T03:38:30.517Z,2.40
2019-03-23T03:40:59.343Z,2.40
2019-03-23T03:43:28.213Z,2.40
2019-03-23T03:45:57.072Z,2.30
2019-03-23T03:48:25.907Z,2.30
2019-03-23T03:50:54.775Z,2.20
2019-03-23T03:53:23.656Z,2.20
2019-03-23T03:55:52.483Z,2.20
2019-03-23T03:58:21.347Z,2.20
2019-03-23T04:00:50.217Z,2.20
2019-03-23T04:03:19.048Z,2.10
2019-03-23T04:05:47.911Z,2.10
2019-03-23T04:08:16.790Z,2.10
2019-03-23T04:10:45.614Z,2.00
2019-03-23T04:13:14.489Z,1.90
2019-03-23T04:15:43.354Z,1.90
2019-03-23T04:18:12.183Z,1.90
2019-03-23T04:20:41.051Z,1.90
2019-03-23T04:23:09.923Z,1.90
2019-03-23T04:25:38.751Z,1.90
2019-03-23T04:28:07.626Z,1.90
2019-03-23T04:30:36.493Z,1.90
2019-03-23T04:33:05.315Z,1.90
2019-03-23T04:35:34.183Z,1.80
2019-03-23T04:38:03.047Z,1.80
2019-03-23T04:40:31.881Z,1.70
2019-03-23T04:43:00.748Z,1.70
2019-03-23T04:45:29.619Z,1.60
2019-03-23T04:47:58.443Z,1.50
2019-03-23T04:50:27.311Z,1.50
2019-03-23T04:52:56.172Z,1.40
2019-03-23T04:55:24.997Z,1.40
2019-03-23T04:57:53.867Z,1.30
2019-03-23T05:00:22.734Z,1.30
2019-03-23T05:02:51.564Z,1.30
2019-03-23T05:05:20.432Z,1.20
2019-03-23T05:07:49.308Z,1.20
2019-03-23T05:10:18.135Z,1.20
2019-03-23T05:12:46.991Z,1.10
2019-03-23T05:15:15.864Z,1.10
2019-03-23T05:17:44.689Z,1.10
2019-03-23T05:20:28.360Z,1.00
2019-03-23T05:22:57.322Z,1.00
2019-03-23T05:25:27.752Z,1.00
2019-03-23T05:27:57.117Z,1.00
2019-03-23T05:30:25.981Z,1.00
2019-03-23T05:32:54.816Z,1.00
2019-03-23T05:35:23.677Z,1.00
2019-03-23T05:37:52.541Z,1.00
2019-03-23T05:40:21.376Z,1.10
2019-03-23T05:42:50.244Z,1.10
2019-03-23T05:45:19.116Z,1.10
2019-03-23T05:47:47.939Z,1.10
2019-03-23T05:50:16.799Z,1.10
2019-03-23T05:52:45.676Z,1.20
2019-03-23T05:55:14.595Z,1.20
2019-03-23T05:57:43.481Z,1.20
2019-03-23T06:00:14.215Z,1.20
2019-03-23T06:02:43.041Z,1.30
2019-03-23T06:05:11.930Z,1.30
2019-03-23T06:07:40.774Z,1.40
2019-03-23T06:10:09.605Z,1.40
2019-03-23T06:12:38.472Z,1.50
2019-03-23T06:15:07.846Z,1.50
2019-03-23T06:17:36.671Z,1.60
2019-03-23T06:20:07.446Z,1.60
2019-03-23T06:22:36.310Z,1.70
2019-03-23T06:25:07.013Z,1.80
2019-03-23T06:27:35.871Z,1.90
2019-03-23T06:30:06.434Z,2.00
2019-03-23T06:32:35.364Z,2.10
2019-03-23T06:35:05.702Z,2.20
2019-03-23T06:37:34.568Z,2.30
2019-03-23T06:40:05.004Z,2.50
2019-03-23T06:42:33.869Z,2.60
2019-03-23T06:45:02.844Z,2.80
2019-03-23T06:47:31.671Z,3.00
2019-03-23T06:50:00.533Z,3.10
2019-03-23T06:52:29.402Z,3.30
2019-03-23T06:54:58.220Z,3.40
2019-03-23T06:57:27.087Z,3.60
2019-03-23T06:59:55.955Z,3.80
2019-03-23T07:02:24.795Z,4.00
2019-03-23T07:04:53.664Z,4.20
2019-03-23T07:07:22.535Z,4.40
2019-03-23T07:09:51.356Z,4.60
2019-03-23T07:12:20.230Z,4.80
2019-03-23T07:14:49.073Z,5.00
2019-03-23T07:17:17.895Z,5.20
2019-03-23T07:19:46.779Z,5.40
2019-03-23T07:22:15.648Z,5.60
2019-03-23T07:24:59.729Z,5.80
2019-03-23T07:27:28.602Z,6.10
2019-03-23T07:29:57.432Z,6.30
2019-03-23T07:32:26.306Z,6.60
2019-03-23T07:34:55.138Z,6.80
2019-03-23T07:37:23.971Z,7.00
2019-03-23T07:39:52.840Z,7.30
2019-03-23T07:42:21.716Z,7.50
2019-03-23T07:44:50.548Z,7.70
2019-03-23T07:47:19.424Z,8.00
2019-03-23T07:49:48.295Z,8.20
2019-03-23T07:52:17.123Z,8.40
2019-03-23T07:54:45.990Z,8.70
2019-03-23T07:57:14.870Z,8.90
2019-03-23T07:59:43.739Z,9.20
2019-03-23T08:02:12.567Z,9.40
2019-03-23T08:04:41.460Z,9.70
2019-03-23T08:07:10.278Z,9.90
2019-03-23T08:09:39.124Z,10.10
2019-03-23T08:12:11.012Z,10.40
2019-03-23T08:14:39.884Z,10.60
2019-03-23T08:17:08.723Z,10.90
2019-03-23T08:19:37.604Z,11.10
2019-03-23T08:22:08.032Z,11.30
2019-03-23T08:24:37.097Z,11.60
2019-03-23T08:27:06.004Z,11.80
2019-03-23T08:29:34.864Z,12.00
2019-03-23T08:32:03.841Z,12.20
2019-03-23T08:34:32.817Z,12.50
2019-03-23T08:37:02.197Z,12.70
2019-03-23T08:39:31.127Z,12.90
2019-03-23T08:42:00.079Z,13.10
2019-03-23T08:44:28.947Z,13.30
2019-03-23T08:46:59.077Z,13.50
2019-03-23T08:49:28.712Z,13.70
2019-03-23T08:51:57.706Z,13.90
2019-03-23T08:54:26.543Z,14.00
2019-03-23T08:56:55.623Z,14.20
2019-03-23T08:59:24.681Z,14.30
2019-03-23T09:01:53.507Z,14.50
2019-03-23T09:04:22.378Z,14.60
2019-03-23T09:06:51.273Z,14.80
2019-03-23T09:09:20.115Z,15.00
2019-03-23T09:11:48.988Z,15.20
2019-03-23T09:14:17.864Z,15.30
2019-03-23T09:16:46.700Z,15.50
2019-03-23T09:19:15.581Z,15.70
2019-03-23T09:21:44.458Z,15.90
2019-03-23T09:24:13.318Z,16.00
2019-03-23T09:26:42.200Z,16.10
2019-03-23T09:29:11.028Z,16.30
2019-03-23T09:31:39.911Z,16.40
2019-03-23T09:34:08.797Z,16.40
2019-03-23T09:36:37.639Z,16.50
2019-03-23T09:39:07.584Z,16.60
2019-03-23T09:41:36.454Z,16.70
2019-03-23T09:44:05.305Z,16.90
2019-03-23T09:46:34.178Z,17.10
2019-03-23T09:49:03.162Z,17.00
2019-03-23T09:51:32.156Z,17.00
2019-03-23T09:54:00.968Z,17.10
2019-03-23T09:56:29.847Z,17.20
2019-03-23T09:58:58.692Z,17.30
2019-03-23T10:01:27.555Z,17.30
2019-03-23T10:03:56.386Z,17.30
2019-03-23T10:06:25.266Z,17.10
2019-03-23T10:08:54.191Z,17.20
2019-03-23T10:11:23.162Z,17.20
2019-03-23T10:13:52.052Z,17.20
2019-03-23T10:16:20.948Z,17.30
2019-03-23T10:18:49.963Z,17.30
2019-03-23T10:21:18.955Z,17.30
2019-03-23T10:23:47.947Z,17.30
2019-03-23T10:26:16.837Z,17.40
2019-03-23T10:28:45.730Z,17.60
2019-03-23T10:31:14.548Z,17.70
2019-03-23T10:33:43.419Z,17.90
2019-03-23T10:36:12.358Z,18.00
2019-03-23T10:38:41.235Z,18.00
2019-03-23T10:41:10.070Z,18.00
2019-03-23T10:43:39.126Z,18.10
2019-03-23T10:46:08.172Z,18.20
2019-03-23T10:48:37.044Z,18.40
2019-03-23T10:51:05.933Z,18.50
2019-03-23T10:53:35.049Z,18.60
2019-03-23T10:56:03.940Z,18.80
2019-03-23T10:58:32.832Z,18.90
2019-03-23T11:01:01.724Z,18.90
2019-03-23T11:03:30.614Z,19.10
2019-03-23T11:05:59.507Z,19.30
2019-03-23T11:08:28.374Z,19.40
2019-03-23T11:10:57.263Z,19.60
2019-03-23T11:13:26.281Z,19.70
2019-03-23T11:15:55.172Z,19.90
2019-03-23T11:18:24.167Z,19.90
2019-03-23T11:20:53.368Z,20.00
2019-03-23T11:23:22.256Z,20.10
2019-03-23T11:25:51.148Z,20.30
2019-03-23T11:28:20.140Z,20.40
2019-03-23T11:30:49.032Z,20.50
2019-03-23T11:33:17.924Z,20.50
2019-03-23T11:35:46.814Z,20.70
2019-03-23T11:38:15.705Z,20.70
2019-03-23T11:40:52.755Z,20.80
2019-03-23T11:43:15.229Z,20.90
2019-03-23T11:45:44.039Z,21.00
2019-03-23T11:48:12.929Z,21.10
2019-03-23T11:50:41.801Z,21.20
2019-03-23T11:53:10.666Z,21.30
2019-03-23T11:55:39.558Z,21.30
2019-03-23T11:58:08.576Z,21.30
2019-03-23T12:00:37.674Z,21.40
2019-03-23T12:03:06.666Z,21.60
2019-03-23T12:05:35.557Z,21.70
2019-03-23T12:08:04.550Z,21.70
2019-03-23T12:10:33.424Z,21.70
2019-03-23T12:13:02.334Z,21.60
2019-03-23T12:15:31.201Z,21.60
2019-03-23T12:18:01.943Z,21.70
2019-03-23T12:20:30.851Z,21.80
2019-03-23T12:22:59.719Z,21.70
2019-03-23T12:25:28.616Z,21.60
2019-03-23T12:27:57.524Z,21.70
2019-03-23T12:30:26.445Z,21.80
2019-03-23T12:32:55.429Z,21.90
2019-03-23T12:35:24.321Z,22.00
2019-03-23T12:37:53.171Z,22.10
2019-03-23T12:40:22.046Z,22.20
2019-03-23T12:42:50.881Z,22.20
2019-03-23T12:45:19.754Z,22.30
2019-03-23T12:47:48.583Z,22.30
2019-03-23T12:50:17.463Z,22.30
2019-03-23T12:52:46.537Z,22.30
2019-03-23T12:55:15.429Z,22.40
2019-03-23T12:57:44.301Z,22.30
2019-03-23T13:00:15.489Z,22.30
2019-03-23T13:02:44.356Z,22.30
2019-03-23T13:05:13.251Z,22.30
2019-03-23T13:07:42.065Z,22.20
2019-03-23T13:10:12.948Z,22.00
2019-03-23T13:12:41.792Z,21.90
2019-03-23T13:15:13.072Z,21.80
2019-03-23T13:17:42.005Z,21.80
2019-03-23T13:20:11.257Z,21.80
2019-03-23T13:22:40.504Z,21.80
2019-03-23T13:25:09.858Z,21.70
2019-03-23T13:27:38.900Z,21.60
2019-03-23T13:30:13.325Z,21.50
2019-03-23T13:32:42.316Z,21.50
2019-03-23T13:35:11.495Z,21.40
2019-03-23T13:37:40.509Z,21.50
2019-03-23T13:40:11.394Z,21.60
2019-03-23T13:42:40.270Z,21.70
2019-03-23T13:45:10.015Z,21.80
2019-03-23T13:47:39.597Z,21.80
2019-03-23T13:50:09.532Z,21.80
2019-03-23T13:52:38.424Z,21.80
2019-03-23T13:55:09.831Z,21.70
2019-03-23T13:57:38.708Z,21.70
2019-03-23T14:00:10.836Z,21.70
2019-03-23T14:02:39.712Z,21.70
2019-03-23T14:05:15.779Z,21.60
2019-03-23T14:07:39.083Z,21.50
2019-03-23T14:10:08.119Z,21.30
2019-03-23T14:12:36.990Z,21.20
2019-03-23T14:15:07.729Z,21.00
2019-03-23T14:17:36.615Z,20.90
2019-03-23T14:20:08.593Z,20.90
2019-03-23T14:22:37.456Z,21.00
2019-03-23T14:25:07.413Z,21.00
2019-03-23T14:27:36.284Z,20.90
2019-03-23T14:30:07.097Z,20.90
2019-03-23T14:32:35.976Z,20.80
2019-03-23T14:35:05.614Z,20.80
2019-03-23T14:37:34.499Z,20.80
2019-03-23T14:40:03.336Z,20.90
2019-03-23T14:42:32.223Z,21.00
2019-03-23T14:45:01.048Z,20.90
2019-03-23T14:47:29.931Z,20.90
2019-03-23T14:49:58.764Z,20.80
2019-03-23T14:52:27.640Z,20.80
2019-03-23T14:54:56.480Z,20.70
2019-03-23T14:57:25.356Z,20.60
2019-03-23T14:59:54.192Z,20.60
2019-03-23T15:02:23.089Z,20.60
2019-03-23T15:04:51.932Z,20.60
2019-03-23T15:07:20.768Z,20.50
2019-03-23T15:09:49.643Z,20.50
2019-03-23T15:12:18.480Z,20.50
2019-03-23T15:14:47.355Z,20.50
2019-03-23T15:17:16.183Z,20.50
2019-03-23T15:19:45.072Z,20.50
2019-03-23T15:22:13.908Z,20.50
2019-03-23T15:24:42.790Z,20.50
2019-03-23T15:27:11.625Z,20.50
2019-03-23T15:29:40.509Z,20.50
2019-03-23T15:32:09.392Z,20.50
2019-03-23T15:34:38.232Z,20.40
2019-03-23T15:37:07.080Z,20.30
2019-03-23T15:39:35.963Z,20.20
2019-03-23T15:42:04.809Z,20.00
2019-03-23T15:44:33.688Z,19.90
2019-03-23T15:47:02.523Z,19.80
2019-03-23T15:49:31.432Z,19.80
2019-03-23T15:52:00.248Z,19.80
2019-03-23T15:54:29.145Z,19.70
2019-03-23T15:56:57.984Z,19.60
2019-03-23T15:59:26.855Z,19.50
2019-03-23T16:01:55.744Z,19.40
2019-03-23T16:04:24.638Z,19.40
2019-03-23T16:06:53.526Z,19.40
2019-03-23T16:09:22.417Z,19.30
2019-03-23T16:11:51.308Z,19.30
2019-03-23T16:14:20.166Z,19.20
2019-03-23T16:16:49.009Z,19.10
2019-03-23T16:19:17.878Z,19.00
2019-03-23T16:21:46.710Z,19.00
2019-03-23T16:24:15.578Z,18.90
2019-03-23T16:26:44.415Z,18.70
2019-03-23T16:29:13.250Z,18.60
2019-03-23T16:31:42.130Z,18.50
2019-03-23T16:34:10.974Z,18.40
2019-03-23T16:36:39.846Z,18.30
2019-03-23T16:39:08.692Z,18.10
2019-03-23T16:41:37.567Z,18.00
2019-03-23T16:44:06.413Z,17.90
2019-03-23T16:46:35.283Z,17.80
2019-03-23T16:49:04.118Z,17.70
2019-03-23T16:51:32.990Z,17.50
2019-03-23T16:54:03.636Z,17.40
2019-03-23T16:56:32.359Z,17.20
2019-03-23T16:59:01.267Z,17.10
2019-03-23T17:01:30.161Z,17.00
2019-03-23T17:03:58.996Z,16.90
2019-03-23T17:06:27.882Z,16.80
2019-03-23T17:08:56.720Z,16.60
2019-03-23T17:11:25.587Z,16.50
2019-03-23T17:13:54.426Z,16.30
2019-03-23T17:16:23.299Z,16.20
2019-03-23T17:19:07.238Z,16.00
2019-03-23T17:21:36.112Z,15.80
2019-03-23T17:24:04.943Z,15.70
2019-03-23T17:26:33.816Z,15.50
2019-03-23T17:29:02.798Z,15.40
2019-03-23T17:31:31.619Z,15.20
2019-03-23T17:34:00.491Z,15.10
2019-03-23T17:36:44.458Z,14.90
2019-03-23T17:39:13.327Z,14.80
2019-03-23T17:41:42.317Z,14.70
2019-03-23T17:44:11.184Z,14.50
2019-03-23T17:46:40.100Z,14.40
2019-03-23T17:49:08.992Z,14.30
2019-03-23T17:51:37.882Z,14.20
2019-03-23T17:54:06.750Z,14.10
2019-03-23T17:56:35.665Z,14.00
2019-03-23T17:59:04.555Z,13.80
2019-03-23T18:01:33.424Z,13.70
2019-03-23T18:04:02.441Z,13.60
2019-03-23T18:06:31.415Z,13.50
2019-03-23T18:09:00.327Z,13.40
2019-03-23T18:11:29.319Z,13.30
2019-03-23T18:13:58.210Z,13.20
2019-03-23T18:16:27.204Z,13.10
2019-03-23T18:18:56.305Z,13.00
2019-03-23T18:21:25.154Z,12.90
2019-03-23T18:23:54.019Z,12.80
2019-03-23T18:26:22.886Z,12.70
2019-03-23T18:28:51.727Z,12.60
2019-03-23T18:31:20.595Z,12.50
2019-03-23T18:33:49.466Z,12.40
2019-03-23T18:36:18.302Z,12.40
2019-03-23T18:38:47.177Z,12.30
2019-03-23T18:41:17.072Z,12.20
2019-03-23T18:43:45.915Z,12.10
2019-03-23T18:46:14.778Z,12.00
2019-03-23T18:48:43.655Z,12.00
2019-03-23T18:51:12.489Z,11.90
2019-03-23T18:53:41.364Z,11.80
2019-03-23T18:56:10.236Z,11.70
2019-03-23T18:58:39.077Z,11.70
2019-03-23T19:01:07.956Z,11.60
2019-03-23T19:03:36.827Z,11.50
2019-03-23T19:06:05.660Z,11.40
2019-03-23T19:08:34.531Z,11.40
2019-03-23T19:11:03.406Z,11.30
2019-03-23T19:13:37.925Z,11.20
2019-03-23T19:16:02.764Z,11.20
2019-03-23T19:18:32.043Z,11.10
2019-03-23T19:21:00.875Z,11.10
2019-03-23T19:23:29.750Z,11.00
2019-03-23T19:25:58.631Z,11.00
2019-03-23T19:28:27.466Z,10.90
2019-03-23T19:30:56.344Z,10.80
2019-03-23T19:33:25.220Z,10.80
2019-03-23T19:35:54.166Z,10.70
2019-03-23T19:38:23.047Z,10.70
2019-03-23T19:40:51.884Z,10.60
2019-03-23T19:43:20.713Z,10.60
2019-03-23T19:45:49.584Z,10.50
2019-03-23T19:48:18.456Z,10.50
2019-03-23T19:50:47.300Z,10.50
2019-03-23T19:53:16.163Z,10.40
2019-03-23T19:55:45.071Z,10.30
2019-03-23T19:58:13.907Z,10.30
2019-03-23T20:00:42.793Z,10.30
2019-03-23T20:03:11.659Z,10.30
2019-03-23T20:05:52.583Z,10.20
2019-03-23T20:08:21.476Z,10.20
2019-03-23T20:10:50.325Z,10.10
2019-03-23T20:13:19.216Z,10.10
2019-03-23T20:15:48.143Z,10.00
2019-03-23T20:18:16.978Z,10.00
2019-03-23T20:21:03.947Z,9.90
2019-03-23T20:23:32.829Z,9.90
2019-03-23T20:26:01.647Z,9.80
2019-03-23T20:28:30.519Z,9.80
2019-03-23T20:30:59.387Z,9.70
2019-03-23T20:33:28.216Z,9.60
2019-03-23T20:35:57.083Z,9.60
2019-03-23T20:38:25.955Z,9.50
2019-03-23T20:40:54.783Z,9.50
2019-03-23T20:43:23.658Z,9.40
2019-03-23T20:45:52.524Z,9.40
2019-03-23T20:48:21.667Z,9.40
2019-03-23T20:50:50.639Z,9.40
2019-03-23T20:53:19.907Z,9.30
2019-03-23T20:55:48.749Z,9.30
2019-03-23T20:58:17.610Z,9.20
2019-03-23T21:00:46.483Z,9.20
2019-03-23T21:03:15.320Z,9.10
2019-03-23T21:05:44.192Z,9.10
2019-03-23T21:08:13.991Z,9.10
2019-03-23T21:10:42.824Z,9.00
2019-03-23T21:13:12.113Z,9.00
2019-03-23T21:15:44.231Z,8.90
2019-03-23T21:18:13.213Z,8.90
2019-03-23T21:20:42.054Z,8.80
2019-03-23T21:23:11.081Z,8.80
2019-03-23T21:25:39.917Z,8.80
2019-03-23T21:28:10.303Z,8.70
2019-03-23T21:30:39.217Z,8.70
2019-03-23T21:33:08.102Z,8.60
2019-03-23T21:35:37.199Z,8.60
2019-03-23T21:38:06.281Z,8.60
2019-03-23T21:40:35.313Z,8.60
2019-03-23T21:43:04.882Z,8.50
2019-03-23T21:45:33.851Z,8.50
2019-03-23T21:48:02.733Z,8.50
2019-03-23T21:50:31.663Z,8.40
2019-03-23T21:53:00.537Z,8.40
2019-03-23T21:55:29.359Z,8.40
2019-03-23T21:57:58.227Z,8.30
2019-03-23T22:00:32.640Z,8.30
2019-03-23T22:03:01.648Z,8.20
2019-03-23T22:05:30.746Z,8.20
2019-03-23T22:07:59.579Z,8.20
2019-03-23T22:10:28.767Z,8.10
2019-03-23T22:12:57.633Z,8.10
2019-03-23T22:15:28.139Z,8.10
2019-03-23T22:17:57.007Z,8.00
2019-03-23T22:20:25.879Z,8.00
2019-03-23T22:22:54.707Z,7.90
2019-03-23T22:25:23.584Z,7.90
2019-03-23T22:27:52.447Z,7.80
2019-03-23T22:30:21.275Z,7.80
2019-03-23T22:32:50.147Z,7.80
2019-03-23T22:35:19.019Z,7.70
2019-03-23T22:37:47.847Z,7.70
2019-03-23T22:40:16.815Z,7.70
2019-03-23T22:42:45.685Z,7.70
2019-03-23T22:45:14.521Z,7.70
2019-03-23T22:47:43.389Z,7.60
2019-03-23T22:50:12.958Z,7.60
2019-03-23T22:52:41.794Z,7.60
2019-03-23T22:55:11.064Z,7.60
2019-03-23T22:57:39.936Z,7.60
2019-03-23T23:00:12.007Z,7.50
2019-03-23T23:02:40.874Z,7.50
2019-03-23T23:05:09.950Z,7.50
2019-03-23T23:07:38.771Z,7.50
2019-03-23T23:10:07.843Z,7.50
2019-03-23T23:12:36.715Z,7.40
2019-03-23T23:15:08.727Z,7.50
2019-03-23T23:17:37.604Z,7.50
2019-03-23T23:20:07.672Z,7.50
2019-03-23T23:22:36.604Z,7.50
2019-03-23T23:25:08.371Z,7.40
2019-03-23T23:27:37.448Z,7.40
2019-03-23T23:30:08.679Z,7.40
2019-03-23T23:32:37.747Z,7.40
2019-03-23T23:35:08.523Z,7.40
2019-03-23T23:37:37.358Z,7.40
2019-03-23T23:40:07.125Z,7.40
2019-03-23T23:42:36.100Z,7.40
2019-03-23T23:45:15.368Z,7.40
2019-03-23T23:47:39.566Z,7.40
2019-03-23T23:50:09.038Z,7.40
2019-03-23T23:52:37.873Z,7.40
2019-03-23T23:55:07.357Z,7.40
2019-03-23T23:57:36.223Z,7.40
